Time;durP1;ratioP1;P1;durP2;ratioP2;P2;SDS_P1;SDS_P2;PMS_P1;PMS_P2;Temp;Humidity;BMP_temperature;BMP_pressure;BME280_temperature;BME280_humidity;BME280_pressure;Samples;Min_cycle;Max_cycle;Signal;HPM_P1;HPM_P2
2022/07/17 00:01:05;;;;;;;2.55;1.40;;;30.80;99.90;;;;;;5000041;23;20075;-50
2022/07/17 00:03:31;;;;;;;3.78;1.80;;;30.80;99.90;;;;;;4967513;28;20067;-50
2022/07/17 00:05:57;;;;;;;1.60;1.35;;;30.80;99.90;;;;;;4955974;28;20139;-50
2022/07/17 00:08:23;;;;;;;3.67;1.50;;;30.80;99.90;;;;;;4956080;28;20565;-50
2022/07/17 00:10:49;;;;;;;2.08;1.60;;;30.80;99.90;;;;;;4959085;28;20194;-51
2022/07/17 00:13:15;;;;;;;4.95;2.00;;;30.90;99.90;;;;;;4957351;28;20027;-50
2022/07/17 00:15:41;;;;;;;1.85;1.38;;;30.80;99.90;;;;;;4954305;28;20034;-50
2022/07/17 00:18:07;;;;;;;3.10;1.55;;;30.80;99.90;;;;;;4961272;28;20133;-50
2022/07/17 00:20:34;;;;;;;2.92;1.77;;;30.80;99.90;;;;;;4969217;28;20130;-49
2022/07/17 00:22:59;;;;;;;4.85;2.13;;;30.80;99.90;;;;;;4973374;28;20026;-52
2022/07/17 00:25:25;;;;;;;2.70;1.50;;;30.70;99.90;;;;;;4969843;28;20441;-50
2022/07/17 00:27:52;;;;;;;2.17;1.50;;;30.80;99.90;;;;;;4954756;28;20031;-51
2022/07/17 00:30:18;;;;;;;2.70;1.48;;;30.70;99.90;;;;;;4967108;28;20042;-51
2022/07/17 00:32:44;;;;;;;1.58;1.45;;;30.80;99.90;;;;;;4953917;28;20389;-51
2022/07/17 00:35:11;;;;;;;4.53;1.63;;;30.70;99.90;;;;;;4957290;28;20092;-51
2022/07/17 00:37:44;;;;;;;3.30;1.60;;;30.70;99.90;;;;;;4961433;28;20045;-51
2022/07/17 00:40:13;;;;;;;2.35;1.40;;;30.70;99.90;;;;;;4963259;28;20014;-51
2022/07/17 00:42:42;;;;;;;2.45;1.63;;;30.70;99.90;;;;;;4952182;29;20481;-51
2022/07/17 00:45:10;;;;;;;2.20;1.63;;;30.70;99.90;;;;;;4958654;28;20039;-50
2022/07/17 00:47:48;;;;;;;;;;;30.70;99.90;;;;;;4954082;28;20070;-51
2022/07/17 00:50:14;;;;;;;1.45;1.35;;;30.70;99.90;;;;;;4958956;28;19980;-51
2022/07/17 00:52:40;;;;;;;1.55;1.30;;;30.70;99.90;;;;;;4954946;28;20019;-51
2022/07/17 00:55:07;;;;;;;1.98;1.42;;;30.70;99.90;;;;;;4964728;28;20019;-51
2022/07/17 00:57:35;;;;;;;2.05;1.40;;;30.70;99.90;;;;;;4955700;28;20035;-51
2022/07/17 01:00:01;;;;;;;2.00;1.33;;;30.70;99.90;;;;;;4990932;23;20100;-59
2022/07/17 01:02:27;;;;;;;3.45;1.25;;;30.70;99.90;;;;;;5011854;28;20034;-58
2022/07/17 01:04:52;;;;;;;2.20;1.50;;;30.70;99.90;;;;;;4997729;28;20181;-59
2022/07/17 01:07:18;;;;;;;1.60;1.40;;;30.70;99.90;;;;;;5000275;28;20025;-59
2022/07/17 01:09:44;;;;;;;4.82;1.70;;;30.70;99.90;;;;;;4975696;28;20044;-59
2022/07/17 01:12:10;;;;;;;2.05;1.30;;;30.70;99.90;;;;;;4991942;28;20023;-60
2022/07/17 01:14:36;;;;;;;2.88;1.42;;;30.70;99.90;;;;;;5003668;28;20022;-59
2022/07/17 01:17:02;;;;;;;2.55;1.13;;;30.70;99.90;;;;;;4993891;28;20045;-60
2022/07/17 01:19:29;;;;;;;1.67;1.27;;;30.70;99.90;;;;;;4992834;28;20101;-58
2022/07/17 01:21:55;;;;;;;4.75;1.50;;;30.70;99.90;;;;;;5005546;28;20060;-61
2022/07/17 01:24:20;;;;;;;1.73;1.45;;;30.70;99.90;;;;;;4991810;28;20472;-61
2022/07/17 01:26:48;;;;;;;1.65;1.55;;;30.70;99.90;;;;;;5002508;28;20026;-60
2022/07/17 01:29:15;;;;;;;2.70;1.42;;;30.70;99.90;;;;;;4994780;28;20050;-60
2022/07/17 01:31:42;;;;;;;2.50;1.63;;;30.70;99.90;;;;;;5005460;28;20031;-60
2022/07/17 01:34:09;;;;;;;1.13;1.03;;;30.70;99.90;;;;;;5000062;28;20484;-60
2022/07/17 01:36:35;;;;;;;;;;;30.60;99.90;;;;;;5006603;28;20124;-60
2022/07/17 01:39:01;;;;;;;1.75;1.25;;;30.60;99.90;;;;;;4996341;28;20003;-60
2022/07/17 01:41:27;;;;;;;1.35;1.20;;;30.60;99.90;;;;;;4997779;28;20436;-59
2022/07/17 01:43:53;;;;;;;1.75;1.25;;;30.60;99.90;;;;;;5006884;28;20022;-59
2022/07/17 01:46:19;;;;;;;2.23;1.53;;;30.70;99.90;;;;;;4998432;28;20033;-59
2022/07/17 01:48:45;;;;;;;2.08;1.40;;;30.60;99.90;;;;;;5001880;28;20404;-59
2022/07/17 01:51:11;;;;;;;3.30;1.33;;;30.60;99.90;;;;;;4993987;28;20023;-60
2022/07/17 01:53:37;;;;;;;2.08;1.45;;;30.60;99.90;;;;;;4991617;28;20417;-60
2022/07/17 01:56:03;;;;;;;2.13;1.40;;;30.60;99.90;;;;;;5004435;28;20100;-60
2022/07/17 01:58:29;;;;;;;1.35;1.25;;;30.60;99.90;;;;;;4992125;28;20022;-60
2022/07/17 02:00:55;;;;;;;1.50;1.10;;;30.60;99.90;;;;;;4986152;23;20073;-51
2022/07/17 02:03:21;;;;;;;2.13;1.40;;;30.60;99.90;;;;;;4952404;28;20085;-51
2022/07/17 02:05:50;;;;;;;1.77;1.13;;;30.60;99.90;;;;;;4956531;28;20026;-50
2022/07/17 02:08:16;;;;;;;1.95;1.10;;;30.60;99.90;;;;;;4960598;28;20273;-51
2022/07/17 02:10:42;;;;;;;1.88;1.30;;;30.60;99.90;;;;;;4963040;28;20465;-51
2022/07/17 02:13:08;;;;;;;1.52;1.33;;;30.60;99.90;;;;;;4952629;28;20039;-51
2022/07/17 02:15:34;;;;;;;1.30;1.20;;;30.60;99.90;;;;;;4954617;28;20153;-51
2022/07/17 02:17:59;;;;;;;1.73;1.38;;;30.60;99.90;;;;;;4952765;28;20098;-54
2022/07/17 02:20:26;;;;;;;2.17;1.50;;;30.60;99.90;;;;;;4962596;28;20034;-50
2022/07/17 02:22:52;;;;;;;1.92;1.33;;;30.60;99.90;;;;;;4969892;28;20034;-51
2022/07/17 02:25:18;;;;;;;1.60;1.50;;;30.60;99.90;;;;;;4955837;28;20050;-52
2022/07/17 02:27:43;;;;;;;2.60;1.38;;;30.60;99.90;;;;;;4960044;28;20469;-52
2022/07/17 02:30:12;;;;;;;1.45;1.15;;;30.60;99.90;;;;;;4970459;28;20025;-52
2022/07/17 02:32:39;;;;;;;1.48;1.38;;;30.60;99.90;;;;;;4960827;28;20039;-52
2022/07/17 02:35:06;;;;;;;1.70;1.10;;;30.70;99.90;;;;;;4952628;28;20019;-51
2022/07/17 02:37:32;;;;;;;1.73;1.50;;;30.70;99.90;;;;;;4960061;28;20082;-50
2022/07/17 02:39:58;;;;;;;2.00;1.15;;;30.70;99.90;;;;;;4957490;28;20031;-51
2022/07/17 02:42:26;;;;;;;1.88;1.05;;;30.70;99.90;;;;;;4951086;28;20046;-51
2022/07/17 02:44:53;;;;;;;1.52;1.35;;;30.80;99.90;;;;;;4955790;28;20028;-51
2022/07/17 02:47:23;;;;;;;1.48;1.17;;;30.80;99.90;;;;;;4968491;28;20480;-50
2022/07/17 02:49:49;;;;;;;1.05;0.95;;;30.80;99.90;;;;;;4970694;28;20495;-51
2022/07/17 02:52:15;;;;;;;2.35;1.17;;;30.80;99.90;;;;;;4962273;28;20149;-50
2022/07/17 02:54:41;;;;;;;2.38;1.38;;;30.90;99.90;;;;;;4958953;28;20055;-51
2022/07/17 02:57:07;;;;;;;4.72;1.70;;;30.90;99.90;;;;;;4965658;28;20039;-51
2022/07/17 02:59:33;;;;;;;3.55;1.67;;;30.80;99.90;;;;;;4976378;23;20023;-62
2022/07/17 03:01:58;;;;;;;4.68;1.15;;;30.90;99.90;;;;;;4974917;28;20039;-58
2022/07/17 03:04:24;;;;;;;1.13;1.05;;;30.90;99.90;;;;;;4977331;28;20366;-58
2022/07/17 03:06:50;;;;;;;1.40;1.10;;;30.90;99.90;;;;;;4983418;28;20034;-59
2022/07/17 03:09:16;;;;;;;2.08;1.27;;;30.80;99.90;;;;;;4976473;28;20027;-58
2022/07/17 03:11:41;;;;;;;1.52;1.05;;;30.80;99.90;;;;;;4983155;28;20026;-57
2022/07/17 03:14:07;;;;;;;1.63;1.20;;;30.90;99.90;;;;;;4974717;28;20031;-57
2022/07/17 03:16:33;;;;;;;1.35;0.93;;;30.80;99.90;;;;;;4974818;28;20067;-59
2022/07/17 03:18:59;;;;;;;1.60;1.50;;;30.80;99.90;;;;;;4987793;28;20363;-57
2022/07/17 03:21:24;;;;;;;3.05;1.58;;;30.80;99.90;;;;;;4990233;28;20019;-55
2022/07/17 03:23:50;;;;;;;1.73;1.20;;;30.70;99.90;;;;;;4974592;28;20452;-57
2022/07/17 03:26:16;;;;;;;1.30;1.20;;;30.70;99.90;;;;;;4979156;28;20052;-56
2022/07/17 03:28:41;;;;;;;1.35;1.17;;;30.70;99.90;;;;;;4989906;28;20388;-58
2022/07/17 03:31:07;;;;;;;1.42;1.30;;;30.70;99.90;;;;;;4989506;28;20394;-56
2022/07/17 03:33:33;;;;;;;1.80;1.10;;;30.70;99.90;;;;;;4975138;28;20400;-57
2022/07/17 03:35:59;;;;;;;2.15;1.17;;;30.60;99.90;;;;;;4976841;28;20050;-57
2022/07/17 03:38:25;;;;;;;1.38;1.27;;;30.60;99.90;;;;;;4988492;28;20080;-57
2022/07/17 03:40:50;;;;;;;1.33;1.13;;;30.60;99.90;;;;;;4974333;28;20026;-57
2022/07/17 03:43:16;;;;;;;2.10;1.10;;;30.60;99.90;;;;;;4974163;28;20027;-55
2022/07/17 03:45:42;;;;;;;1.30;1.08;;;30.60;99.90;;;;;;4974152;28;20050;-57
2022/07/17 03:48:08;;;;;;;1.73;1.02;;;30.50;99.90;;;;;;4984411;28;20545;-56
2022/07/17 03:50:34;;;;;;;1.77;1.48;;;30.50;99.90;;;;;;4956946;28;20035;-55
2022/07/17 03:53:00;;;;;;;1.20;1.10;;;30.50;99.90;;;;;;4962499;28;20022;-55
2022/07/17 03:55:26;;;;;;;2.50;1.05;;;30.50;99.90;;;;;;4972128;28;20046;-54
2022/07/17 03:57:52;;;;;;;1.30;1.10;;;30.50;99.90;;;;;;4990741;28;20070;-54
2022/07/17 04:00:18;;;;;;;1.35;1.15;;;30.50;99.90;;;;;;4974253;28;20065;-63
2022/07/17 04:02:44;;;;;;;1.38;1.20;;;30.50;99.90;;;;;;4974548;28;20465;-63
2022/07/17 04:05:10;;;;;;;1.65;1.50;;;30.50;99.90;;;;;;4975742;28;20403;-63
2022/07/17 04:07:41;;;;;;;2.15;1.30;;;30.50;99.90;;;;;;4977528;28;20487;-63
2022/07/17 04:10:09;;;;;;;1.80;1.30;;;30.40;99.90;;;;;;4977788;28;20035;-63
2022/07/17 04:12:35;;;;;;;1.63;1.45;;;30.40;99.90;;;;;;4973572;28;20023;-63
2022/07/17 04:15:01;;;;;;;1.50;1.40;;;30.40;99.90;;;;;;4960959;28;20014;-63
2022/07/17 04:17:27;;;;;;;1.40;1.30;;;30.40;99.90;;;;;;4977344;28;20117;-64
2022/07/17 04:19:53;;;;;;;2.58;1.38;;;30.40;99.90;;;;;;4984217;28;20073;-63
2022/07/17 04:22:19;;;;;;;1.30;1.20;;;30.40;99.90;;;;;;4973359;28;20030;-64
2022/07/17 04:24:45;;;;;;;1.05;1.02;;;30.40;99.90;;;;;;4974455;28;20069;-64
2022/07/17 04:27:12;;;;;;;2.47;1.48;;;30.40;99.90;;;;;;4989056;28;20112;-63
2022/07/17 04:29:38;;;;;;;1.48;1.00;;;30.40;99.90;;;;;;4990213;28;20027;-62
2022/07/17 04:32:04;;;;;;;1.98;1.77;;;30.40;99.90;;;;;;4981822;28;20033;-64
2022/07/17 04:34:32;;;;;;;1.30;1.20;;;30.40;99.90;;;;;;4973993;28;20394;-57
2022/07/17 04:36:59;;;;;;;1.67;1.20;;;30.30;99.90;;;;;;4976104;28;20289;-57
2022/07/17 04:39:24;;;;;;;1.75;1.15;;;30.30;99.90;;;;;;4973203;28;20015;-57
2022/07/17 04:41:51;;;;;;;2.55;1.40;;;30.40;99.90;;;;;;4983228;28;20061;-57
2022/07/17 04:44:17;;;;;;;1.20;1.10;;;30.40;99.90;;;;;;4975577;28;20037;-58
2022/07/17 04:46:43;;;;;;;1.38;1.27;;;30.30;99.90;;;;;;4982260;28;20029;-57
2022/07/17 04:49:09;;;;;;;1.33;1.15;;;30.30;99.90;;;;;;4973068;28;20524;-56
2022/07/17 04:51:35;;;;;;;1.35;1.05;;;30.30;99.90;;;;;;4972861;28;20502;-57
2022/07/17 04:54:00;;;;;;;1.63;1.27;;;30.30;99.90;;;;;;4981670;28;20027;-61
2022/07/17 04:56:26;;;;;;;1.30;1.20;;;30.30;99.90;;;;;;4979183;28;20122;-61
2022/07/17 04:58:52;;;;;;;1.40;1.27;;;30.30;99.90;;;;;;4972787;28;20446;-60
2022/07/17 05:01:18;;;;;;;1.40;1.30;;;30.30;99.90;;;;;;4972831;28;20402;-57
2022/07/17 05:03:44;;;;;;;1.20;1.10;;;30.30;99.90;;;;;;4986004;28;20030;-60
2022/07/17 05:06:10;;;;;;;3.35;1.08;;;30.30;99.90;;;;;;4977545;28;20031;-59
2022/07/17 05:08:36;;;;;;;1.42;1.02;;;30.30;99.90;;;;;;4965416;28;20597;-60
2022/07/17 05:11:02;;;;;;;2.30;1.42;;;30.30;99.90;;;;;;4976058;28;20105;-62
2022/07/17 05:13:27;;;;;;;1.00;1.00;;;30.40;99.90;;;;;;4984642;28;20476;-58
2022/07/17 05:15:53;;;;;;;2.83;1.15;;;30.50;99.90;;;;;;4982024;28;20383;-60
2022/07/17 05:18:19;;;;;;;1.80;1.30;;;30.50;99.90;;;;;;4973162;28;20115;-58
2022/07/17 05:20:45;;;;;;;1.75;0.95;;;30.50;99.90;;;;;;4976682;28;20035;-58
2022/07/17 05:23:11;;;;;;;4.63;1.40;;;30.50;99.90;;;;;;4975999;28;20041;-57
2022/07/17 05:25:36;;;;;;;1.40;1.30;;;30.50;99.90;;;;;;4974148;28;20030;-58
2022/07/17 05:28:02;;;;;;;2.25;1.48;;;30.50;99.90;;;;;;4973851;28;20023;-62
2022/07/17 05:30:29;;;;;;;2.58;1.38;;;30.60;99.90;;;;;;4966973;28;20133;-60
2022/07/17 05:32:55;;;;;;;1.42;1.23;;;30.60;99.90;;;;;;4974470;28;20038;-60
2022/07/17 05:35:20;;;;;;;1.80;1.20;;;30.60;99.90;;;;;;4977112;28;20387;-58
2022/07/17 05:37:46;;;;;;;3.42;1.50;;;30.60;99.90;;;;;;4982480;28;20070;-57
2022/07/17 05:40:13;;;;;;;1.17;0.88;;;30.60;99.90;;;;;;4972272;28;20027;-56
2022/07/17 05:42:38;;;;;;;1.98;1.20;;;30.60;99.90;;;;;;4962374;28;20440;-57
2022/07/17 05:45:05;;;;;;;1.73;1.30;;;30.60;99.90;;;;;;4976706;28;20026;-55
2022/07/17 05:47:30;;;;;;;1.55;1.27;;;30.50;99.90;;;;;;4974687;28;20042;-56
2022/07/17 05:49:57;;;;;;;1.38;1.27;;;30.50;99.90;;;;;;4972188;28;20015;-56
2022/07/17 05:52:22;;;;;;;2.78;1.48;;;30.50;99.90;;;;;;4981921;28;20600;-55
2022/07/17 05:54:48;;;;;;;2.58;1.65;;;30.50;99.90;;;;;;4974880;28;20015;-55
2022/07/17 05:57:14;;;;;;;4.97;1.23;;;30.50;99.90;;;;;;4988242;28;20121;-55
2022/07/17 05:59:39;;;;;;;1.60;1.27;;;30.50;99.90;;;;;;4973446;28;20026;-55
2022/07/17 06:02:05;;;;;;;1.40;1.30;;;30.50;99.90;;;;;;4989600;28;20113;-55
2022/07/17 06:04:31;;;;;;;2.10;1.40;;;30.50;99.90;;;;;;4976939;28;20122;-54
2022/07/17 06:06:57;;;;;;;1.80;1.52;;;30.40;99.90;;;;;;4976346;28;20023;-55
2022/07/17 06:09:23;;;;;;;1.77;1.42;;;30.40;99.90;;;;;;4981104;28;20022;-55
2022/07/17 06:11:49;;;;;;;2.25;1.35;;;30.40;99.90;;;;;;4976051;28;20029;-54
2022/07/17 06:14:15;;;;;;;1.85;1.67;;;30.40;99.90;;;;;;4970753;28;20431;-54
2022/07/17 06:16:40;;;;;;;3.95;1.77;;;30.40;99.90;;;;;;4978078;28;20045;-55
2022/07/17 06:19:06;;;;;;;4.60;2.10;;;30.50;99.90;;;;;;4974417;28;20522;-55
2022/07/17 06:21:32;;;;;;;6.80;2.58;;;30.40;99.90;;;;;;4966652;28;20022;-55
2022/07/17 06:23:57;;;;;;;4.25;2.35;;;30.40;99.90;;;;;;4993624;28;20038;-55
2022/07/17 06:26:23;;;;;;;2.70;2.50;;;30.40;99.90;;;;;;4976682;28;20030;-54
2022/07/17 06:28:49;;;;;;;6.35;2.50;;;30.50;99.90;;;;;;4983360;28;20026;-55
2022/07/17 06:31:16;;;;;;;2.70;2.30;;;30.50;99.90;;;;;;4981191;28;20035;-56
2022/07/17 06:33:41;;;;;;;2.83;2.47;;;30.40;99.90;;;;;;4988653;28;20038;-55
2022/07/17 06:36:07;;;;;;;3.15;2.22;;;30.50;99.90;;;;;;4985675;28;20488;-55
2022/07/17 06:38:33;;;;;;;3.65;2.03;;;30.50;99.90;;;;;;4978714;28;20054;-56
2022/07/17 06:41:00;;;;;;;4.68;2.22;;;30.50;99.90;;;;;;4987626;28;20107;-58
2022/07/17 06:43:26;;;;;;;6.22;2.03;;;30.50;99.90;;;;;;4981624;28;20034;-57
2022/07/17 06:45:53;;;;;;;3.05;2.17;;;30.50;99.90;;;;;;4977849;28;20086;-57
2022/07/17 06:48:20;;;;;;;3.45;2.22;;;30.50;99.90;;;;;;4984019;28;20031;-56
2022/07/17 06:50:46;;;;;;;2.38;1.95;;;30.50;99.90;;;;;;4977011;28;20536;-57
2022/07/17 06:53:13;;;;;;;3.85;2.40;;;30.50;99.90;;;;;;4991627;28;20066;-57
2022/07/17 06:55:39;;;;;;;3.00;2.37;;;30.50;99.90;;;;;;4981090;28;20085;-57
2022/07/17 06:58:05;;;;;;;2.58;2.25;;;30.50;99.90;;;;;;4974771;28;20038;-56
2022/07/17 07:00:31;;;;;;;2.50;2.20;;;30.50;99.90;;;;;;4978145;28;20047;-57
2022/07/17 07:02:57;;;;;;;4.18;2.40;;;30.50;99.90;;;;;;4977013;28;20027;-58
2022/07/17 07:05:22;;;;;;;2.28;2.08;;;30.60;99.90;;;;;;4987090;28;20019;-58
2022/07/17 07:07:48;;;;;;;3.03;2.50;;;30.60;99.90;;;;;;4974886;28;20483;-58
2022/07/17 07:10:14;;;;;;;5.20;2.72;;;30.60;99.90;;;;;;4974507;28;20050;-58
2022/07/17 07:12:40;;;;;;;3.50;2.67;;;30.60;99.90;;;;;;4974936;28;20022;-58
2022/07/17 07:15:07;;;;;;;3.65;2.80;;;30.60;99.90;;;;;;4984575;28;20031;-58
2022/07/17 07:17:34;;;;;;;2.72;2.50;;;30.60;99.90;;;;;;4981169;28;20042;-58
2022/07/17 07:20:01;;;;;;;4.45;3.15;;;30.60;99.90;;;;;;4984333;28;20062;-58
2022/07/17 07:22:27;;;;;;;2.92;2.63;;;30.60;99.90;;;;;;4989118;28;20027;-58
2022/07/17 07:24:52;;;;;;;4.22;2.40;;;30.60;99.90;;;;;;4984923;28;20039;-58
2022/07/17 07:27:18;;;;;;;3.38;2.58;;;30.60;99.90;;;;;;4988539;28;20109;-59
2022/07/17 07:29:44;;;;;;;4.03;2.60;;;30.60;99.90;;;;;;4991257;28;20114;-59
2022/07/17 07:32:10;;;;;;;4.47;2.90;;;30.70;99.90;;;;;;4976994;28;20069;-60
2022/07/17 07:34:36;;;;;;;3.28;2.42;;;30.60;99.90;;;;;;4958027;28;20121;-60
2022/07/17 07:37:01;;;;;;;3.17;2.22;;;30.60;99.90;;;;;;4988056;28;20031;-61
2022/07/17 07:39:27;;;;;;;3.58;2.55;;;30.60;99.90;;;;;;4985550;28;20165;-60
2022/07/17 07:41:53;;;;;;;4.53;2.50;;;30.60;99.90;;;;;;4974247;28;20023;-60
2022/07/17 07:44:19;;;;;;;3.38;2.47;;;30.70;99.90;;;;;;4974296;28;20045;-60
2022/07/17 07:46:44;;;;;;;3.80;2.85;;;30.70;99.90;;;;;;4983226;28;20476;-60
2022/07/17 07:49:10;;;;;;;6.10;2.90;;;30.70;99.90;;;;;;4990480;28;20415;-60
2022/07/17 07:51:36;;;;;;;4.00;3.58;;;30.70;99.90;;;;;;4984550;28;20146;-60
2022/07/17 07:54:02;;;;;;;3.50;2.90;;;30.70;99.90;;;;;;4992356;28;20026;-61
2022/07/17 07:56:28;;;;;;;2.95;2.65;;;30.70;99.90;;;;;;4992444;28;20018;-61
2022/07/17 07:58:53;;;;;;;5.75;3.00;;;30.70;99.90;;;;;;4987258;28;20037;-59
2022/07/17 08:01:19;;;;;;;3.75;2.80;;;30.70;99.90;;;;;;4973623;28;20047;-59
2022/07/17 08:03:45;;;;;;;3.60;2.70;;;30.70;99.90;;;;;;4973840;28;20038;-59
2022/07/17 08:06:11;;;;;;;3.92;2.97;;;30.80;99.90;;;;;;4977648;28;20018;-61
2022/07/17 08:08:37;;;;;;;4.93;3.40;;;30.70;99.90;;;;;;4979029;28;20038;-60
2022/07/17 08:11:02;;;;;;;3.53;3.20;;;30.70;99.90;;;;;;4990990;28;20065;-64
2022/07/17 08:13:28;;;;;;;3.42;2.90;;;30.80;99.90;;;;;;4971644;28;20122;-63
2022/07/17 08:15:54;;;;;;;3.40;2.97;;;30.80;99.90;;;;;;4991607;28;20495;-58
2022/07/17 08:18:20;;;;;;;5.40;3.40;;;30.80;99.90;;;;;;4991023;28;20089;-60
2022/07/17 08:20:45;;;;;;;4.43;3.25;;;30.80;99.90;;;;;;4991376;28;20050;-60
2022/07/17 08:23:11;;;;;;;3.92;3.30;;;30.80;99.90;;;;;;4989622;28;20023;-60
2022/07/17 08:25:37;;;;;;;3.67;3.05;;;30.80;99.90;;;;;;4981487;28;20106;-59
2022/07/17 08:28:04;;;;;;;3.10;2.72;;;30.80;99.90;;;;;;4990980;28;20038;-59
2022/07/17 08:30:34;;;;;;;;;;;30.80;99.90;;;;;;4992145;28;20046;-60
2022/07/17 08:33:01;;;;;;;3.22;2.83;;;30.80;99.90;;;;;;4988967;28;19912;-59
2022/07/17 08:35:27;;;;;;;3.20;2.28;;;30.80;99.90;;;;;;4991524;28;20030;-59
2022/07/17 08:37:53;;;;;;;2.80;2.13;;;30.90;99.90;;;;;;4989967;28;20126;-59
2022/07/17 08:40:25;;;;;;;3.08;2.22;;;30.80;99.90;;;;;;4988366;28;20472;-56
2022/07/17 08:42:52;;;;;;;2.92;1.95;;;30.90;99.90;;;;;;4983906;28;20034;-58
2022/07/17 08:45:18;;;;;;;2.90;2.10;;;30.90;99.90;;;;;;4990398;28;20472;-58
2022/07/17 08:47:44;;;;;;;2.92;2.35;;;30.90;99.90;;;;;;4984394;28;20139;-54
2022/07/17 08:50:11;;;;;;;2.92;1.55;;;30.90;99.90;;;;;;4981292;28;20027;-54
2022/07/17 08:52:39;;;;;;;4.38;2.00;;;30.90;99.90;;;;;;4979042;28;20608;-52
2022/07/17 08:55:09;;;;;;;4.97;1.48;;;31.00;99.90;;;;;;4972855;28;20243;-53
2022/07/17 08:57:43;;;;;;;3.78;1.60;;;31.00;99.90;;;;;;4980063;28;20455;-52
2022/07/17 09:00:11;;;;;;;1.60;1.50;;;31.00;99.90;;;;;;4987720;28;20049;-52
2022/07/17 09:02:38;;;;;;;4.57;1.50;;;30.90;99.90;;;;;;4986696;28;20034;-53
2022/07/17 09:05:05;;;;;;;2.15;1.92;;;31.00;99.90;;;;;;4989767;28;20030;-53
2022/07/17 09:07:32;;;;;;;9.73;2.25;;;30.90;99.90;;;;;;4988189;28;20149;-55
2022/07/17 09:09:58;;;;;;;2.88;2.55;;;31.00;99.90;;;;;;4988983;28;20022;-50
2022/07/17 09:12:29;;;;;;;5.78;2.17;;;31.00;99.90;;;;;;4983162;28;20125;-51
2022/07/17 09:14:56;;;;;;;2.65;1.83;;;31.00;99.90;;;;;;4988632;28;20034;-50
2022/07/17 09:17:24;;;;;;;1.87;1.77;;;31.00;99.90;;;;;;4981370;28;20031;-53
2022/07/17 09:19:50;;;;;;;4.50;2.40;;;31.00;99.90;;;;;;4973809;28;20034;-53
2022/07/17 09:22:20;;;;;;;4.55;2.35;;;31.00;99.90;;;;;;4974242;28;20468;-55
2022/07/17 09:24:48;;;;;;;6.13;2.08;;;31.00;99.90;;;;;;4972444;28;20364;-52
2022/07/17 09:27:27;;;;;;;8.18;2.42;;;31.00;99.90;;;;;;4983991;28;20019;-50
2022/07/17 09:30:09;;;;;;;10.85;2.00;;;31.10;99.90;;;;;;4990522;28;20136;-50
2022/07/17 09:32:40;;;;;;;12.02;2.15;;;31.10;99.90;;;;;;4991407;28;20042;-53
2022/07/17 09:35:09;;;;;;;10.07;2.03;;;31.10;99.90;;;;;;4983318;28;20101;-54
2022/07/17 09:37:36;;;;;;;5.00;1.65;;;31.10;99.90;;;;;;4979692;28;20030;-53
2022/07/17 09:40:08;;;;;;;3.53;1.60;;;31.10;99.90;;;;;;4978449;28;20065;-53
2022/07/17 09:42:34;;;;;;;5.75;2.15;;;31.10;99.90;;;;;;4990940;28;20038;-54
2022/07/17 09:45:03;;;;;;;2.40;1.88;;;31.10;99.90;;;;;;4991316;28;20030;-54
2022/07/17 09:47:31;;;;;;;3.92;2.20;;;31.10;99.90;;;;;;4983436;28;20427;-54
2022/07/17 09:49:58;;;;;;;2.55;1.85;;;31.10;99.90;;;;;;4986518;28;20050;-54
2022/07/17 09:52:25;;;;;;;;;;;31.20;99.90;;;;;;4988653;28;20057;-54
2022/07/17 09:54:53;;;;;;;3.90;2.20;;;31.10;99.90;;;;;;4985967;28;19909;-54
2022/07/17 09:57:30;;;;;;;3.30;2.22;;;31.10;99.90;;;;;;4995295;28;20042;-54
2022/07/17 09:59:58;;;;;;;2.38;1.98;;;31.10;99.90;;;;;;4991734;28;20147;-54
2022/07/17 10:02:24;;;;;;;4.03;1.80;;;31.10;99.90;;;;;;4992450;28;20030;-54
2022/07/17 10:04:52;;;;;;;2.08;1.40;;;31.10;99.90;;;;;;4986765;28;20357;-53
2022/07/17 10:07:19;;;;;;;2.20;1.58;;;31.20;99.90;;;;;;4992174;28;20038;-55
2022/07/17 10:09:45;;;;;;;2.28;1.38;;;31.20;99.90;;;;;;4980495;28;20138;-54
2022/07/17 10:12:11;;;;;;;2.83;1.30;;;31.20;99.90;;;;;;4986254;28;20042;-54
2022/07/17 10:14:41;;;;;;;2.88;1.35;;;31.20;99.90;;;;;;4983871;28;20039;-55
2022/07/17 10:17:12;;;;;;;2.75;1.50;;;31.20;99.90;;;;;;4984324;28;20572;-55
2022/07/17 10:19:54;;;;;;;1.73;1.63;;;31.20;99.90;;;;;;4987707;28;20073;-55
2022/07/17 10:22:21;;;;;;;2.83;1.40;;;31.20;99.90;;;;;;4988862;28;20495;-54
2022/07/17 10:24:54;;;;;;;2.28;1.52;;;31.20;99.90;;;;;;4989359;28;20480;-55
2022/07/17 10:27:26;;;;;;;2.28;1.50;;;31.20;99.90;;;;;;4986883;28;20049;-61
2022/07/17 10:30:06;;;;;;;2.63;1.30;;;31.30;99.90;;;;;;4989011;28;20022;-56
2022/07/17 10:32:33;;;;;;;1.25;1.10;;;31.20;99.90;;;;;;4989733;28;20041;-61
2022/07/17 10:35:02;;;;;;;5.72;1.73;;;31.20;99.90;;;;;;4989289;28;20125;-63
2022/07/17 10:37:46;;;;;;;2.45;1.83;;;31.20;99.90;;;;;;4987167;28;20042;-61
2022/07/17 10:40:22;;;;;;;3.80;1.90;;;31.20;99.90;;;;;;4974363;28;20507;-60
2022/07/17 10:42:54;;;;;;;3.85;1.95;;;31.10;99.90;;;;;;4970105;28;20042;-61
2022/07/17 10:45:28;;;;;;;3.08;1.38;;;31.10;99.90;;;;;;4975189;28;20101;-60
2022/07/17 10:47:59;;;;;;;4.28;1.45;;;31.10;99.90;;;;;;4974754;28;20041;-61
2022/07/17 10:50:29;;;;;;;2.03;1.30;;;31.10;99.90;;;;;;4974600;28;20022;-59
2022/07/17 10:53:20;;;;;;;5.32;1.88;;;31.10;99.90;;;;;;4974696;28;20031;-58
2022/07/17 10:56:03;;;;;;;3.33;2.25;;;31.10;99.90;;;;;;4974741;28;20023;-60
2022/07/17 10:58:34;;;;;;;2.13;1.38;;;31.10;99.90;;;;;;4958221;28;20038;-58
2022/07/17 11:01:03;;;;;;;3.65;1.60;;;31.10;99.90;;;;;;4974482;28;20395;-61
2022/07/17 11:03:31;;;;;;;4.68;1.60;;;31.10;99.90;;;;;;4974130;28;20058;-61
2022/07/17 11:06:20;;;;;;;4.18;1.60;;;31.10;99.90;;;;;;4974829;28;20078;-60
2022/07/17 11:08:53;;;;;;;3.25;1.70;;;31.10;99.90;;;;;;4974738;28;20061;-61
2022/07/17 11:11:44;;;;;;;3.03;1.63;;;31.20;99.90;;;;;;4974590;28;20027;-60
2022/07/17 11:14:16;;;;;;;10.50;9.50;;;31.20;99.90;;;;;;4974262;28;20135;-62
2022/07/17 11:16:54;;;;;;;5.95;2.70;;;31.20;99.90;;;;;;4974648;28;20059;-61
2022/07/17 11:19:30;;;;;;;2.08;1.60;;;31.20;99.90;;;;;;4964617;28;20034;-62
2022/07/17 11:21:58;;;;;;;3.38;1.67;;;31.20;99.90;;;;;;4981203;28;20023;-67
2022/07/17 11:24:25;;;;;;;2.25;1.50;;;31.20;99.90;;;;;;4974375;28;20023;-60
2022/07/17 11:26:52;;;;;;;2.08;1.88;;;31.20;99.90;;;;;;4974318;28;20118;-61
2022/07/17 11:29:18;;;;;;;3.65;1.40;;;31.20;99.90;;;;;;4989865;28;20480;-62
2022/07/17 11:31:44;;;;;;;2.30;1.42;;;31.10;99.90;;;;;;4990495;28;20026;-64
2022/07/17 11:34:11;;;;;;;5.13;1.73;;;31.10;99.90;;;;;;4974497;28;20428;-63
2022/07/17 11:36:42;;;;;;;4.65;1.55;;;31.10;99.90;;;;;;4973997;28;20027;-61
2022/07/17 11:39:14;;;;;;;4.93;1.40;;;31.10;99.90;;;;;;4974332;28;20030;-63
2022/07/17 11:41:46;;;;;;;2.50;1.58;;;31.10;99.90;;;;;;4974467;28;20421;-63
2022/07/17 11:44:18;;;;;;;3.55;1.52;;;31.10;99.90;;;;;;4975182;28;20026;-64
2022/07/17 11:46:46;;;;;;;4.82;2.20;;;31.10;99.90;;;;;;4984239;28;20031;-60
2022/07/17 11:49:26;;;;;;;1.67;1.40;;;31.10;99.90;;;;;;4974116;28;20054;-63
2022/07/17 11:51:54;;;;;;;2.47;1.63;;;31.10;99.90;;;;;;4974056;28;20473;-63
2022/07/17 11:54:20;;;;;;;3.88;2.42;;;31.10;99.90;;;;;;4973771;28;20117;-61
2022/07/17 11:56:57;;;;;;;5.45;2.17;;;31.10;99.90;;;;;;4973894;28;20122;-62
2022/07/17 11:59:29;;;;;;;4.18;2.00;;;31.10;99.90;;;;;;4973990;28;20030;-65
2022/07/17 12:01:55;;;;;;;2.85;1.90;;;31.10;99.90;;;;;;4973729;28;20090;-61
2022/07/17 12:04:21;;;;;;;4.93;1.87;;;31.10;99.90;;;;;;4973768;28;20503;-61
2022/07/17 12:07:02;;;;;;;1.80;1.70;;;31.10;99.90;;;;;;4973689;28;20252;-61
2022/07/17 12:09:33;;;;;;;3.05;1.60;;;31.20;99.90;;;;;;4973872;28;20392;-63
2022/07/17 12:12:00;;;;;;;2.63;1.52;;;31.20;99.90;;;;;;4973792;28;20023;-61
2022/07/17 12:14:26;;;;;;;5.63;2.10;;;31.20;99.90;;;;;;4973740;28;20023;-61
2022/07/17 12:16:52;;;;;;;2.72;1.48;;;31.20;99.90;;;;;;4972574;28;20476;-61
2022/07/17 12:19:22;;;;;;;4.43;1.92;;;31.30;99.90;;;;;;4973102;28;20034;-62
2022/07/17 12:21:53;;;;;;;4.18;1.92;;;31.30;99.90;;;;;;4956315;28;20038;-65
2022/07/17 12:24:27;;;;;;;2.00;1.80;;;31.30;99.90;;;;;;4973254;28;20026;-63
2022/07/17 12:26:57;;;;;;;2.67;2.03;;;31.40;99.90;;;;;;4955998;28;20027;-60
2022/07/17 12:29:24;;;;;;;3.33;1.75;;;31.40;99.90;;;;;;4973247;28;20034;-64
2022/07/17 12:32:03;;;;;;;3.05;1.67;;;31.50;99.90;;;;;;4955689;28;20031;-60
2022/07/17 12:34:29;;;;;;;2.30;1.42;;;31.50;99.90;;;;;;4973183;28;20023;-62
2022/07/17 12:36:55;;;;;;;3.10;1.45;;;31.50;99.90;;;;;;4973064;28;20113;-64
2022/07/17 12:39:21;;;;;;;4.57;2.15;;;31.60;99.90;;;;;;4973259;28;20062;-66
2022/07/17 12:41:46;;;;;;;2.40;1.50;;;31.60;99.90;;;;;;4973478;28;20023;-61
2022/07/17 12:44:12;;;;;;;2.75;1.70;;;31.60;99.90;;;;;;4972956;28;20019;-65
2022/07/17 12:46:38;;;;;;;4.75;1.60;;;31.70;99.90;;;;;;4973028;28;20018;-62
2022/07/17 12:49:04;;;;;;;2.03;1.77;;;31.70;99.90;;;;;;4955336;28;20180;-64